createdAt,value
2019-05-03T00:00:16.584Z,4.28
2019-05-03T00:02:54.432Z,3.58
2019-05-03T00:05:33.165Z,3.90
2019-05-03T00:08:05.726Z,4.58
2019-05-03T00:10:37.645Z,3.15
2019-05-03T00:13:07.917Z,3.85
2019-05-03T00:15:52.529Z,4.20
2019-05-03T00:18:22.266Z,5.50
2019-05-03T00:20:52.734Z,5.97
2019-05-03T00:23:22.968Z,4.90
2019-05-03T00:25:52.869Z,4.80
2019-05-03T00:28:22.575Z,3.40
2019-05-03T00:30:52.280Z,4.35
2019-05-03T00:33:22.440Z,3.90
2019-05-03T00:36:22.113Z,4.22
2019-05-03T00:38:53.463Z,4.40
2019-05-03T00:41:23.185Z,4.87
2019-05-03T00:43:52.853Z,4.72
2019-05-03T00:46:22.537Z,4.37
2019-05-03T00:48:52.560Z,3.47
2019-05-03T00:51:22.622Z,3.25
2019-05-03T00:53:53.245Z,2.70
2019-05-03T00:56:23.064Z,4.30
2019-05-03T00:58:58.517Z,4.28
2019-05-03T01:01:28.281Z,3.17
2019-05-03T01:03:58.038Z,2.77
2019-05-03T01:06:27.688Z,5.00
2019-05-03T01:08:57.488Z,2.92
2019-05-03T01:11:27.166Z,3.12
2019-05-03T01:13:56.897Z,2.70
2019-05-03T01:16:26.602Z,5.72
2019-05-03T01:18:58.149Z,4.00
2019-05-03T01:21:27.796Z,3.52
2019-05-03T01:23:57.568Z,3.62
2019-05-03T01:26:27.229Z,3.80
2019-05-03T01:28:56.944Z,2.98
2019-05-03T01:31:26.615Z,2.95
2019-05-03T01:33:56.296Z,2.80
2019-05-03T01:36:25.995Z,2.67
2019-05-03T01:38:55.669Z,3.60
2019-05-03T01:41:25.397Z,3.50
2019-05-03T01:43:55.121Z,2.67
2019-05-03T01:46:24.818Z,3.20
2019-05-03T01:49:12.367Z,2.50
2019-05-03T01:52:13.217Z,3.42
2019-05-03T01:54:42.963Z,3.90
2019-05-03T01:57:12.661Z,4.50
2019-05-03T01:59:42.659Z,2.92
2019-05-03T02:02:25.875Z,2.77
2019-05-03T02:05:14.473Z,2.62
2019-05-03T02:07:44.142Z,2.47
2019-05-03T02:10:14.105Z,2.45
2019-05-03T02:12:43.765Z,2.10
2019-05-03T02:15:13.474Z,3.10
2019-05-03T02:17:43.126Z,2.10
2019-05-03T02:20:12.944Z,3.30
2019-05-03T02:22:42.875Z,2.77
2019-05-03T02:25:12.879Z,3.12
2019-05-03T02:27:42.554Z,2.20
2019-05-03T02:30:14.536Z,2.10
2019-05-03T02:32:44.506Z,2.12
2019-05-03T02:35:14.543Z,2.40
2019-05-03T02:37:46.600Z,2.25
2019-05-03T02:40:18.662Z,2.72
2019-05-03T02:43:06.644Z,2.85
2019-05-03T02:45:45.676Z,2.47
2019-05-03T02:48:25.574Z,1.80
2019-05-03T02:50:56.049Z,2.60
2019-05-03T02:53:26.372Z,2.92
2019-05-03T02:56:01.303Z,2.50
2019-05-03T02:58:27.427Z,1.70
2019-05-03T03:04:28.889Z,3.30
2019-05-03T03:06:59.902Z,3.17
2019-05-03T03:09:30.166Z,2.47
2019-05-03T03:12:01.538Z,2.75
2019-05-03T03:14:36.023Z,2.40
2019-05-03T03:17:06.906Z,2.12
2019-05-03T03:19:38.700Z,2.47
2019-05-03T03:22:11.192Z,4.40
2019-05-03T03:24:45.837Z,3.33
2019-05-03T03:27:19.013Z,2.17
2019-05-03T03:29:55.260Z,3.15
2019-05-03T03:32:38.057Z,1.60
2019-05-03T03:35:20.340Z,3.22
2019-05-03T03:37:46.346Z,2.50
2019-05-03T03:40:18.854Z,1.90
2019-05-03T03:42:51.150Z,2.08
2019-05-03T03:45:20.883Z,1.70
2019-05-03T03:47:56.188Z,2.12
2019-05-03T03:50:27.253Z,2.45
2019-05-03T03:52:58.851Z,2.12
2019-05-03T03:55:31.556Z,3.20
2019-05-03T03:58:01.519Z,1.85
2019-05-03T04:00:31.395Z,1.98
2019-05-03T04:03:02.117Z,1.57
2019-05-03T04:05:32.025Z,1.80
2019-05-03T04:08:02.174Z,1.32
2019-05-03T04:10:31.982Z,2.58
2019-05-03T04:13:05.260Z,1.85
2019-05-03T04:15:41.402Z,1.72
2019-05-03T04:18:29.824Z,2.10
2019-05-03T04:20:59.671Z,4.92
2019-05-03T04:23:31.928Z,1.52
2019-05-03T04:26:02.688Z,1.62
2019-05-03T04:28:36.153Z,1.22
2019-05-03T04:31:06.233Z,1.50
2019-05-03T04:33:36.150Z,1.62
2019-05-03T04:36:06.005Z,1.07
2019-05-03T04:38:35.817Z,1.60
2019-05-03T04:41:06.148Z,1.37
2019-05-03T04:43:36.012Z,2.05
2019-05-03T04:46:19.606Z,2.05
2019-05-03T04:48:49.271Z,1.87
2019-05-03T04:51:19.001Z,1.40
2019-05-03T04:53:57.699Z,1.25
2019-05-03T04:56:27.392Z,1.20
2019-05-03T04:58:57.107Z,1.32
2019-05-03T05:01:26.789Z,1.02
2019-05-03T05:03:56.516Z,1.30
2019-05-03T05:06:26.259Z,1.10
2019-05-03T05:08:55.990Z,1.10
2019-05-03T05:11:26.267Z,1.22
2019-05-03T05:13:56.286Z,1.02
2019-05-03T05:16:25.976Z,1.35
2019-05-03T05:18:59.891Z,0.88
2019-05-03T05:21:44.705Z,1.12
2019-05-03T05:24:15.145Z,1.32
2019-05-03T05:27:00.197Z,1.15
2019-05-03T05:29:31.647Z,2.67
2019-05-03T05:32:01.382Z,1.40
2019-05-03T05:34:31.125Z,0.98
2019-05-03T05:37:00.841Z,1.42
2019-05-03T05:39:30.496Z,1.37
2019-05-03T05:42:00.284Z,1.30
2019-05-03T05:44:30.078Z,0.88
2019-05-03T05:47:18.728Z,1.10
2019-05-03T05:50:01.543Z,1.40
2019-05-03T05:52:31.229Z,1.30
2019-05-03T05:55:28.941Z,2.02
2019-05-03T05:58:12.460Z,1.67
2019-05-03T06:01:07.172Z,2.55
2019-05-03T06:03:36.884Z,2.15
2019-05-03T06:06:08.784Z,2.75
2019-05-03T06:09:00.565Z,3.22
2019-05-03T06:11:41.505Z,3.87
2019-05-03T06:14:30.210Z,4.17
2019-05-03T06:17:14.519Z,3.72
2019-05-03T06:19:51.472Z,3.95
2019-05-03T06:22:46.199Z,5.92
2019-05-03T06:25:35.219Z,4.30
2019-05-03T06:28:17.437Z,4.72
2019-05-03T06:31:00.412Z,4.22
2019-05-03T06:33:30.171Z,3.22
2019-05-03T06:35:59.876Z,4.00
2019-05-03T06:38:29.552Z,4.97
2019-05-03T06:40:59.384Z,4.67
2019-05-03T06:43:29.064Z,5.62
2019-05-03T06:45:58.766Z,5.22
2019-05-03T06:48:32.014Z,6.10
2019-05-03T06:51:00.302Z,5.62
2019-05-03T06:53:31.383Z,5.10
2019-05-03T06:56:01.114Z,4.60
2019-05-03T06:58:33.742Z,4.97
2019-05-03T07:01:14.779Z,5.83
2019-05-03T07:03:55.123Z,5.70
2019-05-03T07:06:39.458Z,5.40
2019-05-03T07:09:30.228Z,9.25
2019-05-03T07:11:59.954Z,8.48
2019-05-03T07:14:29.901Z,6.62
2019-05-03T07:16:59.598Z,7.85
2019-05-03T07:19:29.288Z,7.17
2019-05-03T07:21:58.982Z,11.20
2019-05-03T07:24:28.689Z,9.88
2019-05-03T07:26:59.146Z,11.03
2019-05-03T07:29:29.033Z,7.10
2019-05-03T07:31:58.676Z,9.45
2019-05-03T07:34:28.366Z,9.78
2019-05-03T07:36:58.042Z,10.48
2019-05-03T07:39:27.757Z,9.60
2019-05-03T07:41:57.504Z,8.65
2019-05-03T07:44:27.210Z,11.75
2019-05-03T07:46:56.870Z,11.18
2019-05-03T07:49:26.717Z,8.08
2019-05-03T07:51:56.433Z,8.98
2019-05-03T07:54:26.151Z,7.80
2019-05-03T07:57:00.883Z,11.25
2019-05-03T07:59:30.632Z,7.92
2019-05-03T08:02:00.374Z,9.08
2019-05-03T08:04:30.221Z,7.35
2019-05-03T08:06:59.905Z,7.20
2019-05-03T08:09:29.662Z,7.97
2019-05-03T08:11:59.389Z,5.62
2019-05-03T08:14:29.104Z,5.37
2019-05-03T08:16:58.864Z,7.47
2019-05-03T08:19:28.654Z,6.47
2019-05-03T08:21:58.394Z,8.65
2019-05-03T08:24:28.135Z,9.63
2019-05-03T08:26:57.914Z,10.35
2019-05-03T08:29:27.632Z,10.90
2019-05-03T08:32:15.440Z,11.78
2019-05-03T08:35:04.694Z,17.12
2019-05-03T08:37:54.931Z,17.55
2019-05-03T08:40:26.427Z,23.42
2019-05-03T08:42:56.193Z,25.80
2019-05-03T08:45:25.956Z,22.22
2019-05-03T08:47:55.814Z,21.37
2019-05-03T08:50:25.794Z,22.50
2019-05-03T08:52:55.975Z,25.30
2019-05-03T08:55:25.811Z,25.08
2019-05-03T08:57:55.530Z,24.98
2019-05-03T09:00:27.504Z,27.37
2019-05-03T09:02:57.313Z,23.95
2019-05-03T09:05:27.110Z,23.57
2019-05-03T09:07:56.969Z,24.23
2019-05-03T09:10:46.080Z,24.52
2019-05-03T09:13:17.905Z,23.40
2019-05-03T09:15:47.821Z,23.02
2019-05-03T09:18:17.765Z,23.15
2019-05-03T09:20:47.422Z,22.70
2019-05-03T09:23:17.689Z,22.75
2019-05-03T09:25:47.538Z,25.55
2019-05-03T09:28:17.427Z,23.32
2019-05-03T09:30:47.279Z,23.55
2019-05-03T09:33:17.061Z,22.87
2019-05-03T09:35:46.783Z,23.18
2019-05-03T09:38:16.606Z,23.77
2019-05-03T09:40:46.405Z,23.45
2019-05-03T09:43:17.632Z,23.45
2019-05-03T09:45:47.475Z,21.97
2019-05-03T09:48:17.222Z,24.57
2019-05-03T09:50:47.093Z,22.58
2019-05-03T09:53:18.376Z,23.38
2019-05-03T09:55:48.116Z,21.60
2019-05-03T09:58:17.935Z,22.95
2019-05-03T10:00:49.021Z,27.30
2019-05-03T10:03:18.809Z,23.98
2019-05-03T10:05:48.529Z,21.27
2019-05-03T10:08:18.356Z,25.60
2019-05-03T10:11:05.907Z,21.68
2019-05-03T10:13:35.903Z,19.90
2019-05-03T10:16:06.318Z,24.02
2019-05-03T10:18:36.328Z,21.50
2019-05-03T10:21:06.485Z,23.70
2019-05-03T10:23:45.165Z,22.30
2019-05-03T10:26:15.309Z,19.90
2019-05-03T10:28:45.168Z,21.45
2019-05-03T10:31:14.871Z,21.68
2019-05-03T10:34:02.316Z,21.52
2019-05-03T10:36:32.088Z,21.47
2019-05-03T10:39:01.953Z,21.35
2019-05-03T10:41:31.716Z,20.62
2019-05-03T10:44:01.466Z,22.52
2019-05-03T10:46:31.197Z,23.07
2019-05-03T10:49:00.952Z,23.57
2019-05-03T10:51:33.073Z,21.30
2019-05-03T10:54:05.086Z,21.87
2019-05-03T10:57:06.544Z,19.70
2019-05-03T10:59:36.319Z,18.82
2019-05-03T11:02:25.394Z,18.95
2019-05-03T11:04:55.173Z,19.10
2019-05-03T11:07:25.683Z,21.20
2019-05-03T11:09:55.548Z,22.00
2019-05-03T11:12:25.524Z,19.95
2019-05-03T11:14:55.342Z,20.60
2019-05-03T11:17:25.632Z,22.93
2019-05-03T11:19:55.505Z,20.77
2019-05-03T11:22:25.407Z,18.12
2019-05-03T11:24:55.079Z,16.25
2019-05-03T11:27:30.395Z,14.45
2019-05-03T11:30:00.212Z,11.70
2019-05-03T11:32:41.388Z,13.58
2019-05-03T11:35:29.226Z,13.65
2019-05-03T11:38:15.417Z,16.37
2019-05-03T11:40:45.508Z,12.45
2019-05-03T11:43:16.406Z,12.68
2019-05-03T11:45:46.092Z,16.12
2019-05-03T11:48:15.855Z,17.50
2019-05-03T11:50:46.697Z,12.05
2019-05-03T11:53:16.490Z,13.48
2019-05-03T11:55:46.598Z,15.40
2019-05-03T11:58:22.837Z,17.57
2019-05-03T12:01:12.952Z,19.32
2019-05-03T12:03:41.626Z,17.82
2019-05-03T12:09:45.168Z,15.15
2019-05-03T12:12:29.396Z,14.90
2019-05-03T12:14:58.506Z,13.88
2019-05-03T12:17:30.592Z,11.40
2019-05-03T12:20:02.047Z,9.85
2019-05-03T12:22:32.558Z,7.72
2019-05-03T12:25:09.339Z,5.33
2019-05-03T12:27:35.006Z,4.15
2019-05-03T12:30:05.178Z,3.80
2019-05-03T12:32:34.869Z,2.85
2019-05-03T12:35:06.100Z,3.52
2019-05-03T12:37:36.018Z,3.92
2019-05-03T12:40:05.839Z,3.87
2019-05-03T12:42:35.697Z,5.28
2019-05-03T12:45:05.777Z,4.85
2019-05-03T12:47:35.477Z,4.53
2019-05-03T12:50:05.538Z,3.87
2019-05-03T12:52:43.505Z,2.42
2019-05-03T12:55:06.808Z,4.95
2019-05-03T12:57:36.537Z,2.80
2019-05-03T13:00:48.207Z,2.75
2019-05-03T13:03:37.510Z,3.98
2019-05-03T13:06:07.539Z,3.20
2019-05-03T13:08:45.628Z,1.32
2019-05-03T13:11:15.136Z,1.75
2019-05-03T13:13:45.332Z,1.60
2019-05-03T13:16:18.636Z,1.75
2019-05-03T13:18:48.427Z,2.45
2019-05-03T13:21:18.157Z,2.50
2019-05-03T13:23:47.774Z,3.72
2019-05-03T13:26:17.416Z,2.37
2019-05-03T13:28:47.131Z,2.47
2019-05-03T13:31:16.762Z,2.83
2019-05-03T13:33:46.513Z,4.12
2019-05-03T13:36:16.203Z,3.85
2019-05-03T13:38:45.896Z,5.40
2019-05-03T13:41:15.527Z,6.33
2019-05-03T13:43:45.524Z,6.40
2019-05-03T13:46:15.746Z,6.62
2019-05-03T13:48:48.948Z,11.00
2019-05-03T13:51:17.179Z,7.70
2019-05-03T13:53:46.818Z,9.60
2019-05-03T13:56:16.531Z,7.95
2019-05-03T13:58:46.171Z,11.08
2019-05-03T14:01:15.888Z,8.68
2019-05-03T14:04:06.491Z,9.13
2019-05-03T14:06:36.702Z,10.30
2019-05-03T14:09:07.931Z,11.60
2019-05-03T14:11:37.812Z,10.40
2019-05-03T14:14:07.471Z,8.58
2019-05-03T14:16:37.263Z,10.48
2019-05-03T14:19:14.577Z,12.00
2019-05-03T14:21:48.857Z,9.78
2019-05-03T14:24:18.611Z,8.03
2019-05-03T14:26:48.429Z,9.53
2019-05-03T14:29:18.209Z,9.48
2019-05-03T14:31:47.955Z,12.50
2019-05-03T14:34:17.738Z,14.15
2019-05-03T14:36:47.454Z,10.35
2019-05-03T14:39:17.218Z,9.38
2019-05-03T14:41:47.188Z,10.00
2019-05-03T14:44:17.989Z,14.85
2019-05-03T14:46:48.188Z,9.73
2019-05-03T14:49:17.880Z,10.10
2019-05-03T14:51:47.629Z,12.55
2019-05-03T14:54:17.523Z,11.95
2019-05-03T14:56:57.960Z,21.55
2019-05-03T14:59:46.679Z,21.82
2019-05-03T15:02:40.896Z,17.87
2019-05-03T15:05:05.389Z,20.88
2019-05-03T15:07:35.208Z,23.40
2019-05-03T15:10:05.641Z,22.58
2019-05-03T15:12:36.066Z,26.45
2019-05-03T15:15:06.638Z,26.35
2019-05-03T15:17:36.355Z,27.80
2019-05-03T15:20:10.209Z,24.10
2019-05-03T15:22:45.287Z,25.37
2019-05-03T15:25:24.979Z,27.07
2019-05-03T15:27:55.437Z,25.77
2019-05-03T15:30:25.578Z,26.20
2019-05-03T15:33:00.528Z,22.20
2019-05-03T15:35:26.813Z,20.00
2019-05-03T15:37:56.705Z,23.12
2019-05-03T15:40:26.464Z,19.77
2019-05-03T15:43:05.564Z,19.00
2019-05-03T15:46:05.216Z,20.65
2019-05-03T15:48:43.346Z,17.35
2019-05-03T15:51:14.996Z,17.62
2019-05-03T15:53:44.487Z,17.95
2019-05-03T15:56:14.730Z,15.98
2019-05-03T15:58:46.828Z,15.98
2019-05-03T16:01:15.888Z,15.78
2019-05-03T16:03:45.610Z,15.93
2019-05-03T16:06:15.684Z,16.90
2019-05-03T16:08:45.557Z,15.25
2019-05-03T16:11:15.428Z,13.55
2019-05-03T16:13:45.214Z,13.70
2019-05-03T16:16:15.299Z,14.38
2019-05-03T16:18:45.077Z,15.53
2019-05-03T16:21:14.885Z,13.10
2019-05-03T16:23:46.613Z,11.68
2019-05-03T16:26:15.936Z,13.28
2019-05-03T16:28:50.612Z,13.35
2019-05-03T16:31:22.099Z,12.15
2019-05-03T16:34:06.909Z,12.47
2019-05-03T16:36:36.910Z,9.30
2019-05-03T16:39:08.102Z,9.40
2019-05-03T16:41:44.709Z,9.53
2019-05-03T16:44:16.444Z,10.05
2019-05-03T16:46:46.033Z,9.03
2019-05-03T16:49:15.844Z,9.50
2019-05-03T16:51:46.071Z,11.40
2019-05-03T16:54:16.474Z,12.15
2019-05-03T16:56:46.349Z,11.15
2019-05-03T16:59:17.404Z,11.20
2019-05-03T17:01:47.405Z,11.50
2019-05-03T17:04:34.640Z,12.65
2019-05-03T17:07:12.284Z,11.05
2019-05-03T17:12:26.765Z,11.40
2019-05-03T17:14:57.024Z,12.93
2019-05-03T17:17:26.970Z,11.80
2019-05-03T17:20:00.022Z,12.37
2019-05-03T17:22:29.780Z,14.55
2019-05-03T17:24:59.538Z,14.07
2019-05-03T17:27:29.261Z,13.28
2019-05-03T17:29:58.969Z,11.97
2019-05-03T17:32:28.808Z,14.98
2019-05-03T17:34:58.603Z,13.58
2019-05-03T17:37:28.339Z,12.58
2019-05-03T17:40:26.271Z,13.22
2019-05-03T17:43:15.723Z,12.15
2019-05-03T17:45:51.288Z,13.38
2019-05-03T17:48:21.092Z,14.00
2019-05-03T17:50:50.831Z,14.63
2019-05-03T17:53:42.239Z,15.38
2019-05-03T17:56:25.648Z,15.10
2019-05-03T17:59:17.311Z,12.35
2019-05-03T18:02:24.220Z,16.75
2019-05-03T18:05:16.001Z,15.23
2019-05-03T18:08:04.689Z,16.73
2019-05-03T18:10:35.526Z,14.75
2019-05-03T18:13:05.252Z,17.12
2019-05-03T18:15:35.043Z,16.93
2019-05-03T18:18:05.936Z,18.70
2019-05-03T18:20:35.758Z,17.00
2019-05-03T18:23:05.707Z,17.57
2019-05-03T18:25:38.464Z,17.10
2019-05-03T18:28:07.949Z,18.50
2019-05-03T18:30:37.725Z,15.50
2019-05-03T18:33:07.572Z,16.55
2019-05-03T18:35:37.341Z,18.98
2019-05-03T18:38:07.098Z,17.60
2019-05-03T18:40:37.026Z,17.30
2019-05-03T18:43:11.626Z,18.85
2019-05-03T18:45:59.202Z,18.98
2019-05-03T18:48:28.960Z,17.67
2019-05-03T18:50:58.802Z,17.12
2019-05-03T18:53:28.512Z,19.12
2019-05-03T18:55:58.262Z,18.85
2019-05-03T18:58:28.229Z,17.37
2019-05-03T19:00:58.029Z,18.25
2019-05-03T19:03:27.770Z,17.12
2019-05-03T19:06:00.335Z,17.37
2019-05-03T19:08:58.196Z,15.43
2019-05-03T19:11:35.510Z,16.37
2019-05-03T19:14:07.296Z,14.25
2019-05-03T19:17:02.229Z,18.37
2019-05-03T19:19:35.367Z,14.10
2019-05-03T19:22:05.472Z,18.17
2019-05-03T19:24:35.253Z,14.98
2019-05-03T19:27:07.160Z,14.55
2019-05-03T19:29:37.362Z,17.82
2019-05-03T19:32:07.226Z,15.65
2019-05-03T19:34:47.849Z,14.87
2019-05-03T19:37:08.490Z,16.73
2019-05-03T19:39:38.376Z,14.55
2019-05-03T19:42:08.122Z,13.38
2019-05-03T19:44:38.063Z,14.43
2019-05-03T19:47:07.940Z,13.70
2019-05-03T19:49:37.635Z,15.23
2019-05-03T19:52:07.492Z,12.28
2019-05-03T19:54:37.237Z,14.95
2019-05-03T19:57:06.966Z,13.85
2019-05-03T19:59:56.860Z,16.23
2019-05-03T20:02:48.554Z,14.20
2019-05-03T20:05:44.895Z,15.45
2019-05-03T20:08:20.805Z,14.85
2019-05-03T20:10:52.195Z,17.35
2019-05-03T20:13:31.921Z,14.78
2019-05-03T20:15:55.086Z,15.95
2019-05-03T20:18:24.766Z,16.87
2019-05-03T20:20:55.301Z,20.70
2019-05-03T20:23:25.319Z,17.17
2019-05-03T20:25:55.023Z,17.82
2019-05-03T20:28:24.904Z,19.65
2019-05-03T20:30:54.683Z,18.52
2019-05-03T20:33:24.735Z,17.95
2019-05-03T20:35:56.247Z,17.30
2019-05-03T20:38:26.087Z,18.07
2019-05-03T20:40:57.402Z,20.23
2019-05-03T20:43:55.366Z,16.73
2019-05-03T20:46:29.941Z,16.12
2019-05-03T20:49:04.343Z,15.98
2019-05-03T20:51:34.583Z,15.15
2019-05-03T20:54:04.963Z,16.55
2019-05-03T20:56:34.910Z,16.17
2019-05-03T20:59:05.476Z,17.75
2019-05-03T21:01:35.245Z,14.18
2019-05-03T21:04:05.047Z,15.40
2019-05-03T21:06:35.991Z,15.98
2019-05-03T21:09:07.775Z,15.35
2019-05-03T21:11:37.495Z,16.23
2019-05-03T21:14:07.381Z,16.60
2019-05-03T21:16:58.951Z,17.98
2019-05-03T21:19:46.803Z,17.17
2019-05-03T21:22:25.935Z,16.80
2019-05-03T21:25:01.583Z,17.17
2019-05-03T21:27:31.418Z,17.32
2019-05-03T21:30:01.124Z,15.75
2019-05-03T21:32:30.934Z,17.62
2019-05-03T21:35:00.678Z,18.23
2019-05-03T21:37:30.445Z,17.12
2019-05-03T21:40:00.129Z,19.25
2019-05-03T21:42:29.985Z,17.07
2019-05-03T21:44:59.685Z,17.40
2019-05-03T21:47:48.297Z,17.73
2019-05-03T21:50:19.239Z,19.15
2019-05-03T21:52:48.996Z,18.00
2019-05-03T21:55:18.760Z,19.50
2019-05-03T21:57:48.531Z,18.62
2019-05-03T22:00:18.561Z,18.23
2019-05-03T22:02:48.272Z,18.10
2019-05-03T22:05:18.044Z,17.70
2019-05-03T22:07:47.792Z,18.42
2019-05-03T22:10:17.731Z,21.73
2019-05-03T22:12:47.455Z,17.85
2019-05-03T22:15:26.431Z,19.15
2019-05-03T22:18:15.142Z,17.15
2019-05-03T22:21:21.848Z,16.75
2019-05-03T22:24:22.556Z,18.02
2019-05-03T22:26:55.374Z,21.05
2019-05-03T22:29:25.608Z,17.45
2019-05-03T22:31:55.536Z,19.55
2019-05-03T22:34:25.848Z,19.00
2019-05-03T22:36:55.905Z,17.50
2019-05-03T22:39:25.699Z,18.67
2019-05-03T22:41:55.456Z,18.50
2019-05-03T22:44:25.499Z,16.82
2019-05-03T22:46:55.388Z,16.50
2019-05-03T22:49:26.073Z,17.42
2019-05-03T22:51:56.089Z,18.12
2019-05-03T22:54:25.786Z,17.02
2019-05-03T22:56:55.719Z,18.57
2019-05-03T22:59:25.501Z,18.32
2019-05-03T23:01:55.438Z,15.78
2019-05-03T23:04:25.512Z,15.90
2019-05-03T23:06:55.755Z,18.55
2019-05-03T23:09:25.623Z,16.97
2019-05-03T23:11:55.484Z,19.27
2019-05-03T23:14:25.722Z,17.50
2019-05-03T23:16:55.561Z,17.02
2019-05-03T23:19:25.321Z,17.52
2019-05-03T23:22:00.473Z,18.02
2019-05-03T23:24:30.228Z,16.25
2019-05-03T23:27:00.055Z,19.70
2019-05-03T23:29:29.852Z,14.98
2019-05-03T23:31:59.585Z,15.30
2019-05-03T23:34:29.409Z,18.95
2019-05-03T23:36:59.199Z,17.12
2019-05-03T23:39:28.920Z,13.70
2019-05-03T23:41:58.692Z,18.32
2019-05-03T23:44:28.512Z,15.13
2019-05-03T23:47:05.205Z,15.23
2019-05-03T23:49:35.354Z,11.57
2019-05-03T23:52:25.682Z,16.48
2019-05-03T23:54:57.233Z,14.43
2019-05-03T23:57:27.177Z,15.05
2019-05-03T23:59:57.020Z,14.30
